Weather Data

Pearl Creek Farm: 8878 N Farm Road 75, Walnut Grove MO 65770

<== Previous Day (Saturday 19 Jan 2013) | Next Day (Monday 21 Jan 2013) ==>

Summary Precipitation Data For Sunday 20 January 2013

ElementValueUnits
Precipitation0"
Notes(none)
SourcePearl Creek Farm

Summary Temperature Data For Sunday 20 January 2013

ElementValueUnits
High Temperature48 oF
Low Temperature28 oF
Average Temperature37 oF
High Humidity85 %
Low Humidity39 %
Average Humidity62 %
SourcePearl Creek Farm

Detail Temperature Data For Sunday 20 January 2013

Date / TimeTemp (F)RH (%)Dew Pt (F)Report Date / TimeSource
2013-01-20 00:00:00 38 79 31.9 2013-01-27 10:51:56 Pearl Creek Farm
2013-01-20 00:30:00 36 82 30.9 2013-01-27 10:51:56 Pearl Creek Farm
2013-01-20 01:00:00 34 81 28.7 2013-01-27 10:51:56 Pearl Creek Farm
2013-01-20 01:30:00 33 82 28.0 2013-01-27 10:51:56 Pearl Creek Farm
2013-01-20 02:00:00 31 84 26.6 2013-01-27 10:51:56 Pearl Creek Farm
2013-01-20 02:30:00 31 84 26.8 2013-01-27 10:51:56 Pearl Creek Farm
2013-01-20 03:00:00 30 84 25.8 2013-01-27 10:51:56 Pearl Creek Farm
2013-01-20 03:30:00 30 84 25.8 2013-01-27 10:51:56 Pearl Creek Farm
2013-01-20 04:00:00 30 85 26.1 2013-01-27 10:51:56 Pearl Creek Farm
2013-01-20 04:30:00 36 78 29.8 2013-01-27 10:51:56 Pearl Creek Farm
2013-01-20 05:00:00 35 77 28.5 2013-01-27 10:51:56 Pearl Creek Farm
2013-01-20 05:30:00 33 80 27.4 2013-01-27 10:51:56 Pearl Creek Farm
2013-01-20 06:00:00 31 81 25.7 2013-01-27 10:51:56 Pearl Creek Farm
2013-01-20 06:30:00 30 83 25.3 2013-01-27 10:51:56 Pearl Creek Farm
2013-01-20 07:00:00 31 83 26.5 2013-01-27 10:51:56 Pearl Creek Farm
2013-01-20 07:30:00 32 82 27.1 2013-01-27 10:51:56 Pearl Creek Farm
2013-01-20 08:00:00 30 84 25.8 2013-01-27 10:51:56 Pearl Creek Farm
2013-01-20 08:30:00 30 85 26.1 2013-01-27 10:51:56 Pearl Creek Farm
2013-01-20 09:00:00 33 78 26.9 2013-01-27 10:51:56 Pearl Creek Farm
2013-01-20 09:30:00 35 68 25.5 2013-01-27 10:51:56 Pearl Creek Farm
2013-01-20 10:00:00 37 57 23.2 2013-01-27 10:51:56 Pearl Creek Farm
2013-01-20 10:30:00 38 56 23.7 2013-01-27 10:51:56 Pearl Creek Farm
2013-01-20 11:00:00 40 51 23.4 2013-01-27 10:51:56 Pearl Creek Farm
2013-01-20 11:30:00 42 53 25.9 2013-01-27 10:51:56 Pearl Creek Farm
2013-01-20 12:00:00 43 47 24.2 2013-01-27 10:51:56 Pearl Creek Farm
2013-01-20 12:30:00 44 44 23.3 2013-01-27 10:51:56 Pearl Creek Farm
2013-01-20 13:00:00 46 42 24.0 2013-01-27 10:51:56 Pearl Creek Farm
2013-01-20 13:30:00 47 41 24.6 2013-01-27 10:51:56 Pearl Creek Farm
2013-01-20 14:00:00 47 42 24.9 2013-01-27 10:51:56 Pearl Creek Farm
2013-01-20 14:30:00 48 41 25.2 2013-01-27 10:51:56 Pearl Creek Farm
2013-01-20 15:00:00 48 40 24.6 2013-01-27 10:51:56 Pearl Creek Farm
2013-01-20 15:30:00 48 40 24.6 2013-01-27 10:51:56 Pearl Creek Farm
2013-01-20 16:00:00 47 40 23.7 2013-01-27 10:51:56 Pearl Creek Farm
2013-01-20 16:30:00 46 40 23.1 2013-01-27 10:51:56 Pearl Creek Farm
2013-01-20 17:00:00 45 39 21.6 2013-01-27 10:51:56 Pearl Creek Farm
2013-01-20 17:30:00 43 42 21.5 2013-01-27 10:51:56 Pearl Creek Farm
2013-01-20 18:00:00 41 42 19.7 2013-01-27 10:51:56 Pearl Creek Farm
2013-01-20 18:30:00 40 43 19.4 2013-01-27 10:51:56 Pearl Creek Farm
2013-01-20 19:00:00 39 45 19.5 2013-01-27 10:51:56 Pearl Creek Farm
2013-01-20 19:30:00 37 48 18.9 2013-01-27 10:51:56 Pearl Creek Farm
2013-01-20 20:00:00 36 51 19.7 2013-01-27 10:51:56 Pearl Creek Farm
2013-01-20 20:30:00 34 55 19.4 2013-01-27 10:51:56 Pearl Creek Farm
2013-01-20 21:00:00 33 59 20.1 2013-01-27 10:51:56 Pearl Creek Farm
2013-01-20 21:30:00 31 63 19.7 2013-01-27 10:51:56 Pearl Creek Farm
2013-01-20 22:00:00 31 61 19.0 2013-01-27 10:51:56 Pearl Creek Farm
2013-01-20 22:30:00 30 63 19.0 2013-01-27 10:51:56 Pearl Creek Farm
2013-01-20 23:00:00 29 65 18.7 2013-01-27 10:51:56 Pearl Creek Farm
2013-01-20 23:30:00 28 65 17.8 2013-01-27 10:51:56 Pearl Creek Farm

A total of 48 rows are displayed.